createdAt,value
2022-11-10T00:02:00.103Z,12.70
2022-11-10T00:04:46.627Z,12.70
2022-11-10T00:07:33.103Z,12.70
2022-11-10T00:10:20.073Z,12.70
2022-11-10T00:13:06.740Z,12.70
2022-11-10T00:16:12.583Z,12.60
2022-11-10T00:18:59.355Z,12.60
2022-11-10T00:21:45.846Z,12.50
2022-11-10T00:24:32.500Z,12.30
2022-11-10T00:27:19.048Z,12.40
2022-11-10T00:30:06.818Z,12.40
2022-11-10T00:32:54.630Z,12.50
2022-11-10T00:35:41.368Z,12.40
2022-11-10T00:38:27.804Z,12.30
2022-11-10T00:41:14.433Z,12.30
2022-11-10T00:44:01.161Z,12.40
2022-11-10T00:46:47.946Z,12.30
2022-11-10T00:49:35.883Z,12.30
2022-11-10T00:52:22.539Z,12.30
2022-11-10T00:55:09.919Z,12.30
2022-11-10T00:57:56.573Z,12.10
2022-11-10T01:00:43.272Z,12.20
2022-11-10T01:03:30.218Z,12.20
2022-11-10T01:06:19.491Z,12.20
2022-11-10T01:09:05.958Z,12.10
2022-11-10T01:11:52.486Z,12.10
2022-11-10T01:14:39.081Z,12.00
2022-11-10T01:17:25.658Z,12.10
2022-11-10T01:20:12.646Z,12.20
2022-11-10T01:23:00.744Z,12.00
2022-11-10T01:25:47.405Z,12.00
2022-11-10T01:28:34.906Z,11.90
2022-11-10T01:31:23.445Z,12.00
2022-11-10T01:34:10.171Z,12.00
2022-11-10T01:36:59.978Z,11.80
2022-11-10T01:39:48.036Z,11.90
2022-11-10T01:42:45.339Z,11.90
2022-11-10T01:45:47.534Z,11.90
2022-11-10T01:48:37.192Z,11.80
2022-11-10T01:51:28.607Z,11.80
2022-11-10T01:54:19.512Z,11.70
2022-11-10T01:57:11.111Z,11.70
2022-11-10T01:59:57.751Z,11.70
2022-11-10T02:02:49.767Z,11.60
2022-11-10T02:05:37.268Z,11.60
2022-11-10T02:08:25.165Z,11.60
2022-11-10T02:11:12.378Z,11.70
2022-11-10T02:14:01.422Z,11.60
2022-11-10T02:16:48.349Z,11.60
2022-11-10T02:19:41.751Z,11.70
2022-11-10T02:22:29.734Z,11.60
2022-11-10T02:25:20.569Z,11.60
2022-11-10T02:28:07.847Z,11.50
2022-11-10T02:30:55.332Z,11.40
2022-11-10T02:33:42.064Z,11.50
2022-11-10T02:36:28.478Z,11.50
2022-11-10T02:39:16.265Z,11.40
2022-11-10T02:42:03.096Z,11.40
2022-11-10T02:44:49.731Z,11.50
2022-11-10T02:47:36.176Z,11.50
2022-11-10T02:50:22.653Z,11.50
2022-11-10T02:53:09.713Z,11.40
2022-11-10T02:55:57.582Z,11.40
2022-11-10T02:58:44.336Z,11.30
2022-11-10T03:01:30.970Z,11.30
2022-11-10T03:04:17.461Z,11.30
2022-11-10T03:07:04.039Z,11.40
2022-11-10T03:09:50.500Z,11.40
2022-11-10T03:12:38.331Z,11.40
2022-11-10T03:15:26.073Z,11.20
2022-11-10T03:18:12.668Z,11.20
2022-11-10T03:20:59.111Z,11.30
2022-11-10T03:23:45.602Z,11.30
2022-11-10T03:26:31.969Z,11.20
2022-11-10T03:29:19.794Z,11.20
2022-11-10T03:32:06.611Z,11.20
2022-11-10T03:34:53.659Z,11.20
2022-11-10T03:37:43.013Z,11.20
2022-11-10T03:40:29.724Z,11.20
2022-11-10T03:43:16.218Z,11.20
2022-11-10T03:46:04.179Z,11.20
2022-11-10T03:48:53.747Z,11.10
2022-11-10T03:51:40.641Z,11.20
2022-11-10T03:54:27.414Z,11.20
2022-11-10T03:57:13.916Z,11.20
2022-11-10T04:00:00.220Z,11.20
2022-11-10T04:02:48.147Z,11.20
2022-11-10T04:05:52.176Z,11.20
2022-11-10T04:08:56.207Z,11.20
2022-11-10T04:12:00.117Z,11.20
2022-11-10T04:15:06.408Z,11.20
2022-11-10T04:17:54.465Z,11.20
2022-11-10T04:20:40.766Z,11.20
2022-11-10T04:23:29.151Z,11.00
2022-11-10T04:26:32.887Z,11.10
2022-11-10T04:29:21.163Z,11.10
2022-11-10T04:32:07.995Z,11.10
2022-11-10T04:34:55.843Z,11.00
2022-11-10T04:37:42.411Z,10.90
2022-11-10T04:40:28.969Z,11.00
2022-11-10T04:43:15.404Z,11.10
2022-11-10T04:46:02.370Z,11.20
2022-11-10T04:48:49.637Z,11.10
2022-11-10T04:51:39.703Z,11.00
2022-11-10T04:54:26.604Z,11.10
2022-11-10T04:57:13.167Z,11.20
2022-11-10T04:59:59.728Z,11.10
2022-11-10T05:02:46.294Z,11.00
2022-11-10T05:05:33.406Z,11.00
2022-11-10T05:08:21.685Z,11.10
2022-11-10T05:11:08.881Z,11.10
2022-11-10T05:13:55.372Z,11.10
2022-11-10T05:16:41.895Z,11.00
2022-11-10T05:19:28.521Z,11.00
2022-11-10T05:22:15.317Z,11.00
2022-11-10T05:25:03.578Z,11.00
2022-11-10T05:27:50.430Z,11.00
2022-11-10T05:30:37.079Z,11.00
2022-11-10T05:33:24.429Z,11.00
2022-11-10T05:36:12.057Z,11.00
2022-11-10T05:38:58.669Z,11.00
2022-11-10T05:41:46.541Z,11.00
2022-11-10T05:44:33.400Z,11.00
2022-11-10T05:47:19.828Z,10.90
2022-11-10T05:50:07.862Z,10.90
2022-11-10T05:52:56.087Z,10.90
2022-11-10T05:55:42.997Z,11.00
2022-11-10T05:58:30.787Z,11.00
2022-11-10T06:01:17.530Z,11.00
2022-11-10T06:04:04.275Z,11.00
2022-11-10T06:06:51.145Z,11.00
2022-11-10T06:09:38.044Z,11.00
2022-11-10T06:12:25.671Z,11.00
2022-11-10T06:15:15.466Z,11.00
2022-11-10T06:18:01.941Z,11.00
2022-11-10T06:20:48.451Z,11.00
2022-11-10T06:23:35.039Z,11.00
2022-11-10T06:26:21.530Z,11.10
2022-11-10T06:29:07.999Z,11.00
2022-11-10T06:31:56.114Z,11.00
2022-11-10T06:34:42.869Z,11.00
2022-11-10T06:37:29.334Z,11.10
2022-11-10T06:40:15.992Z,11.00
2022-11-10T06:43:03.068Z,11.00
2022-11-10T06:45:49.795Z,11.10
2022-11-10T06:48:38.182Z,11.00
2022-11-10T06:51:25.022Z,11.10
2022-11-10T06:54:11.590Z,11.10
2022-11-10T06:56:58.592Z,11.10
2022-11-10T06:59:45.236Z,11.10
2022-11-10T07:02:31.766Z,11.10
2022-11-10T07:05:19.713Z,11.10
2022-11-10T07:08:07.122Z,11.10
2022-11-10T07:10:55.852Z,11.10
2022-11-10T07:13:43.520Z,11.20
2022-11-10T07:16:30.174Z,11.20
2022-11-10T07:19:16.663Z,11.30
2022-11-10T07:22:10.613Z,11.30
2022-11-10T07:24:58.505Z,11.30
2022-11-10T07:27:45.011Z,11.30
2022-11-10T07:30:33.555Z,11.40
2022-11-10T07:33:20.689Z,11.40
2022-11-10T07:36:08.207Z,11.40
2022-11-10T07:38:56.195Z,11.50
2022-11-10T07:41:42.844Z,11.40
2022-11-10T07:44:29.378Z,11.50
2022-11-10T07:47:15.808Z,11.60
2022-11-10T07:50:02.504Z,11.60
2022-11-10T07:52:48.907Z,11.60
2022-11-10T07:55:38.331Z,11.70
2022-11-10T07:58:25.139Z,11.70
2022-11-10T08:01:11.665Z,11.60
2022-11-10T08:03:58.130Z,11.70
2022-11-10T08:06:44.760Z,11.80
2022-11-10T08:09:31.781Z,11.80
2022-11-10T08:12:19.595Z,11.70
2022-11-10T08:15:07.366Z,11.70
2022-11-10T08:18:00.121Z,11.80
2022-11-10T08:20:46.756Z,11.80
2022-11-10T08:23:33.293Z,11.90
2022-11-10T08:26:19.690Z,11.80
2022-11-10T08:29:07.639Z,11.90
2022-11-10T08:31:54.290Z,11.90
2022-11-10T08:34:40.820Z,11.90
2022-11-10T08:37:28.303Z,11.90
2022-11-10T08:40:15.517Z,11.90
2022-11-10T08:43:03.076Z,11.90
2022-11-10T08:45:51.213Z,12.00
2022-11-10T08:48:38.037Z,12.00
2022-11-10T08:51:24.360Z,12.00
2022-11-10T08:54:11.048Z,12.00
2022-11-10T08:56:57.697Z,12.10
2022-11-10T08:59:44.197Z,12.20
2022-11-10T09:02:32.093Z,12.20
2022-11-10T09:05:18.783Z,12.10
2022-11-10T09:08:06.155Z,12.20
2022-11-10T09:10:52.564Z,12.30
2022-11-10T09:13:39.022Z,12.20
2022-11-10T09:16:25.438Z,12.40
2022-11-10T09:19:18.431Z,12.50
2022-11-10T09:22:06.447Z,12.60
2022-11-10T09:24:53.096Z,12.70
2022-11-10T09:27:40.199Z,12.70
2022-11-10T09:30:27.002Z,12.60
2022-11-10T09:33:13.848Z,12.70
2022-11-10T09:36:02.188Z,12.90
2022-11-10T09:38:48.699Z,12.80
2022-11-10T09:41:39.504Z,13.00
2022-11-10T09:44:28.636Z,13.00
2022-11-10T09:47:50.549Z,13.00
2022-11-10T09:50:37.383Z,13.00
2022-11-10T09:53:29.207Z,13.10
2022-11-10T09:56:20.391Z,13.10
2022-11-10T09:59:16.909Z,13.20
2022-11-10T10:02:06.536Z,13.30
2022-11-10T10:05:30.241Z,13.30
2022-11-10T10:08:26.207Z,13.30
2022-11-10T10:11:22.414Z,13.40
2022-11-10T10:14:24.124Z,13.50
2022-11-10T10:17:23.594Z,13.50
2022-11-10T10:20:19.867Z,13.60
2022-11-10T10:23:18.640Z,13.60
2022-11-10T10:26:10.858Z,13.70
2022-11-10T10:28:59.621Z,13.70
2022-11-10T10:31:49.568Z,13.80
2022-11-10T10:34:36.300Z,13.90
2022-11-10T10:37:26.204Z,14.00
2022-11-10T10:40:17.426Z,13.90
2022-11-10T10:43:05.428Z,13.90
2022-11-10T10:46:06.902Z,14.10
2022-11-10T10:49:28.171Z,14.20
2022-11-10T10:52:20.836Z,14.30
2022-11-10T10:55:09.767Z,14.40
2022-11-10T10:58:01.268Z,14.60
2022-11-10T11:00:51.707Z,14.60
2022-11-10T11:03:44.168Z,14.70
2022-11-10T11:06:31.837Z,14.80
2022-11-10T11:09:21.164Z,14.70
2022-11-10T11:12:09.919Z,14.70
2022-11-10T11:15:13.802Z,14.90
2022-11-10T11:18:03.557Z,14.90
2022-11-10T11:21:00.363Z,14.90
2022-11-10T11:24:01.859Z,15.00
2022-11-10T11:26:57.092Z,14.90
2022-11-10T11:29:58.262Z,14.90
2022-11-10T11:33:14.528Z,14.90
2022-11-10T11:36:10.425Z,15.00
2022-11-10T11:39:05.786Z,15.00
2022-11-10T11:42:02.192Z,15.00
2022-11-10T11:45:03.612Z,15.10
2022-11-10T11:48:07.048Z,15.10
2022-11-10T11:50:58.703Z,15.10
2022-11-10T11:54:03.050Z,15.20
2022-11-10T11:56:51.186Z,15.30
2022-11-10T12:00:00.789Z,15.30
2022-11-10T12:03:24.059Z,15.40
2022-11-10T12:06:29.004Z,15.50
2022-11-10T12:09:25.300Z,15.40
2022-11-10T12:12:26.738Z,15.30
2022-11-10T12:15:26.557Z,15.30
2022-11-10T12:18:25.485Z,15.20
2022-11-10T12:21:25.591Z,15.40
2022-11-10T12:24:32.848Z,15.50
2022-11-10T12:27:22.035Z,15.50
2022-11-10T12:30:12.954Z,15.60
2022-11-10T12:33:05.283Z,15.60
2022-11-10T12:35:55.907Z,15.50
2022-11-10T12:38:59.557Z,15.50
2022-11-10T12:41:50.683Z,15.50
2022-11-10T12:44:41.194Z,15.60
2022-11-10T12:47:34.416Z,15.60
2022-11-10T12:50:32.488Z,15.60
2022-11-10T12:53:23.712Z,15.70
2022-11-10T12:56:19.145Z,15.60
2022-11-10T12:59:23.718Z,15.70
2022-11-10T13:02:25.608Z,15.70
2022-11-10T13:05:29.310Z,15.70
2022-11-10T13:08:24.884Z,15.70
2022-11-10T13:11:28.496Z,15.70
2022-11-10T13:14:24.590Z,15.80
2022-11-10T13:17:13.064Z,15.90
2022-11-10T13:20:20.861Z,16.00
2022-11-10T13:23:26.876Z,15.90
2022-11-10T13:26:52.340Z,15.90
2022-11-10T13:29:57.510Z,16.00
2022-11-10T13:32:44.202Z,16.10
2022-11-10T13:35:55.160Z,16.10
2022-11-10T13:38:45.932Z,16.00
2022-11-10T13:41:35.105Z,16.10
2022-11-10T13:44:28.009Z,16.20
2022-11-10T13:47:44.773Z,16.10
2022-11-10T13:50:42.818Z,16.00
2022-11-10T13:53:41.750Z,15.90
2022-11-10T13:56:50.720Z,15.80
2022-11-10T13:59:50.534Z,15.70
2022-11-10T14:02:54.518Z,15.80
2022-11-10T14:06:05.376Z,15.80
2022-11-10T14:08:56.560Z,15.70
2022-11-10T14:11:50.151Z,15.70
2022-11-10T14:14:51.535Z,15.70
2022-11-10T14:17:46.170Z,15.70
2022-11-10T14:20:46.652Z,15.60
2022-11-10T14:23:39.251Z,15.60
2022-11-10T14:26:33.121Z,15.50
2022-11-10T14:29:34.805Z,15.50
2022-11-10T14:32:24.907Z,15.40
2022-11-10T14:35:21.219Z,15.40
2022-11-10T14:38:20.412Z,15.40
2022-11-10T14:41:15.133Z,15.40
2022-11-10T14:44:06.886Z,15.40
2022-11-10T14:46:54.656Z,15.40
2022-11-10T14:49:43.912Z,15.30
2022-11-10T14:52:30.805Z,15.30
2022-11-10T14:55:20.819Z,15.30
2022-11-10T14:58:15.017Z,15.20
2022-11-10T15:01:02.862Z,15.20
2022-11-10T15:03:50.050Z,15.10
2022-11-10T15:06:43.105Z,15.20
2022-11-10T15:09:33.840Z,15.10
2022-11-10T15:12:24.612Z,15.10
2022-11-10T15:15:21.736Z,15.00
2022-11-10T15:18:24.115Z,15.00
2022-11-10T15:21:13.845Z,15.00
2022-11-10T15:24:05.631Z,15.00
2022-11-10T15:26:52.501Z,14.90
2022-11-10T15:29:39.320Z,14.80
2022-11-10T15:32:33.032Z,14.80
2022-11-10T15:35:31.754Z,14.80
2022-11-10T15:38:32.646Z,14.70
2022-11-10T15:41:27.582Z,14.70
2022-11-10T15:44:16.343Z,14.60
2022-11-10T15:47:03.188Z,14.60
2022-11-10T15:49:49.725Z,14.50
2022-11-10T15:52:36.084Z,14.50
2022-11-10T15:55:23.917Z,14.60
2022-11-10T15:58:15.084Z,14.50
2022-11-10T16:01:02.182Z,14.50
2022-11-10T16:03:49.048Z,14.40
2022-11-10T16:06:35.638Z,14.40
2022-11-10T16:09:22.455Z,14.30
2022-11-10T16:12:15.003Z,14.30
2022-11-10T16:15:03.348Z,14.40
2022-11-10T16:17:49.926Z,14.30
2022-11-10T16:20:36.338Z,14.30
2022-11-10T16:23:23.079Z,14.20
2022-11-10T16:26:14.136Z,14.20
2022-11-10T16:29:01.051Z,14.20
2022-11-10T16:31:49.092Z,14.20
2022-11-10T16:34:35.915Z,14.20
2022-11-10T16:37:22.415Z,14.20
2022-11-10T16:40:14.342Z,14.20
2022-11-10T16:43:00.899Z,14.20
2022-11-10T16:45:48.664Z,14.20
2022-11-10T16:48:37.612Z,14.10
2022-11-10T16:51:29.793Z,14.00
2022-11-10T16:54:17.161Z,14.00
2022-11-10T16:57:03.562Z,14.00
2022-11-10T16:59:49.883Z,14.00
2022-11-10T17:02:40.352Z,14.00
2022-11-10T17:05:28.969Z,14.00
2022-11-10T17:08:22.770Z,13.90
2022-11-10T17:11:10.437Z,13.90
2022-11-10T17:13:56.882Z,13.90
2022-11-10T17:16:46.152Z,13.90
2022-11-10T17:19:33.132Z,13.80
2022-11-10T17:22:22.767Z,13.90
2022-11-10T17:25:15.027Z,13.80
2022-11-10T17:28:01.805Z,13.70
2022-11-10T17:30:48.574Z,13.70
2022-11-10T17:33:35.343Z,13.70
2022-11-10T17:36:23.644Z,13.70
2022-11-10T17:39:14.887Z,13.60
2022-11-10T17:42:02.900Z,13.60
2022-11-10T17:44:49.476Z,13.60
2022-11-10T17:47:35.924Z,13.60
2022-11-10T17:50:24.721Z,13.60
2022-11-10T17:53:19.494Z,13.60
2022-11-10T17:56:08.530Z,13.60
2022-11-10T17:58:55.121Z,13.50
2022-11-10T18:01:41.821Z,13.50
2022-11-10T18:04:28.625Z,13.50
2022-11-10T18:07:15.143Z,13.50
2022-11-10T18:10:02.171Z,13.40
2022-11-10T18:12:49.982Z,13.40
2022-11-10T18:15:36.753Z,13.30
2022-11-10T18:18:23.248Z,13.40
2022-11-10T18:21:10.819Z,13.20
2022-11-10T18:23:57.456Z,13.30
2022-11-10T18:26:43.953Z,13.30
2022-11-10T18:29:31.618Z,13.30
2022-11-10T18:32:18.517Z,13.20
2022-11-10T18:35:05.906Z,13.30
2022-11-10T18:37:52.589Z,13.30
2022-11-10T18:40:38.959Z,13.30
2022-11-10T18:43:25.557Z,13.30
2022-11-10T18:46:13.702Z,13.20
2022-11-10T18:49:00.526Z,13.20
2022-11-10T18:51:47.327Z,13.20
2022-11-10T18:54:34.014Z,13.20
2022-11-10T18:57:20.551Z,13.20
2022-11-10T19:00:08.401Z,13.20
2022-11-10T19:02:56.278Z,13.20
2022-11-10T19:05:42.954Z,13.10
2022-11-10T19:08:30.380Z,13.10
2022-11-10T19:11:20.078Z,13.10
2022-11-10T19:14:07.005Z,13.00
2022-11-10T19:16:53.627Z,13.00
2022-11-10T19:19:41.508Z,13.00
2022-11-10T19:22:28.229Z,13.00
2022-11-10T19:25:14.762Z,13.00
2022-11-10T19:28:01.234Z,13.00
2022-11-10T19:30:47.788Z,12.90
2022-11-10T19:33:35.876Z,12.90
2022-11-10T19:36:25.602Z,12.90
2022-11-10T19:39:12.472Z,12.90
2022-11-10T19:41:59.085Z,12.90
2022-11-10T19:44:45.538Z,12.90
2022-11-10T19:47:32.342Z,12.90
2022-11-10T19:50:19.018Z,12.80
2022-11-10T19:53:07.069Z,12.80
2022-11-10T19:55:53.611Z,12.80
2022-11-10T19:58:41.962Z,12.80
2022-11-10T20:01:28.902Z,12.80
2022-11-10T20:04:15.812Z,12.80
2022-11-10T20:07:19.627Z,12.80
2022-11-10T20:10:09.198Z,12.80
2022-11-10T20:12:55.873Z,12.80
2022-11-10T20:15:43.203Z,12.80
2022-11-10T20:18:30.631Z,12.80
2022-11-10T20:21:20.825Z,12.70
2022-11-10T20:24:07.647Z,12.80
2022-11-10T20:26:55.917Z,12.70
2022-11-10T20:29:44.269Z,12.70
2022-11-10T20:32:31.565Z,12.70
2022-11-10T20:35:18.459Z,12.70
2022-11-10T20:38:06.321Z,12.60
2022-11-10T20:41:03.303Z,12.70
2022-11-10T20:43:51.884Z,12.60
2022-11-10T20:46:55.183Z,12.60
2022-11-10T20:49:42.279Z,12.60
2022-11-10T20:52:28.959Z,12.60
2022-11-10T20:55:18.567Z,12.50
2022-11-10T20:58:05.703Z,12.50
2022-11-10T21:00:53.998Z,12.50
2022-11-10T21:03:41.037Z,12.50
2022-11-10T21:06:27.814Z,12.50
2022-11-10T21:09:14.440Z,12.40
2022-11-10T21:12:18.155Z,12.40
2022-11-10T21:15:05.337Z,12.40
2022-11-10T21:17:53.510Z,12.40
2022-11-10T21:20:40.270Z,12.30
2022-11-10T21:23:26.746Z,12.40
2022-11-10T21:26:13.350Z,12.40
2022-11-10T21:29:00.024Z,12.40
2022-11-10T21:31:46.526Z,12.40
2022-11-10T21:34:35.639Z,12.30
2022-11-10T21:37:23.110Z,12.20
2022-11-10T21:40:10.909Z,12.20
2022-11-10T21:42:57.533Z,12.20
2022-11-10T21:45:44.190Z,12.20
2022-11-10T21:48:30.741Z,12.20
2022-11-10T21:51:19.865Z,12.10
2022-11-10T21:54:06.667Z,12.20
2022-11-10T21:56:53.427Z,12.20
2022-11-10T21:59:40.101Z,12.20
2022-11-10T22:02:26.662Z,12.10
2022-11-10T22:05:13.379Z,12.10
2022-11-10T22:08:01.274Z,12.00
2022-11-10T22:11:05.264Z,12.00
2022-11-10T22:14:09.567Z,12.10
2022-11-10T22:17:13.515Z,12.00
2022-11-10T22:20:00.427Z,12.00
2022-11-10T22:22:46.884Z,12.00
2022-11-10T22:25:34.871Z,11.90
2022-11-10T22:28:21.767Z,12.00
2022-11-10T22:31:09.982Z,12.00
2022-11-10T22:33:56.386Z,12.00
2022-11-10T22:36:42.921Z,12.00
2022-11-10T22:39:49.391Z,12.00
2022-11-10T22:42:54.846Z,12.00
2022-11-10T22:45:45.107Z,12.00
2022-11-10T22:48:33.117Z,11.80
2022-11-10T22:51:19.592Z,11.90
2022-11-10T22:54:07.397Z,11.90
2022-11-10T22:56:53.882Z,11.90
2022-11-10T22:59:41.749Z,11.90
2022-11-10T23:02:28.651Z,11.80
2022-11-10T23:05:15.200Z,11.80
2022-11-10T23:08:01.749Z,11.80
2022-11-10T23:10:48.323Z,11.80
2022-11-10T23:13:35.680Z,11.80
2022-11-10T23:16:25.799Z,11.80
2022-11-10T23:19:12.405Z,11.70
2022-11-10T23:21:58.930Z,11.70
2022-11-10T23:24:45.444Z,11.70
2022-11-10T23:27:34.151Z,11.60
2022-11-10T23:30:20.822Z,11.70
2022-11-10T23:33:08.520Z,11.70
2022-11-10T23:35:55.243Z,11.70
2022-11-10T23:38:42.996Z,11.60
2022-11-10T23:41:29.717Z,11.60
2022-11-10T23:44:16.220Z,11.60
2022-11-10T23:47:02.829Z,11.60
2022-11-10T23:49:50.510Z,11.60
2022-11-10T23:52:37.152Z,11.50
2022-11-10T23:55:23.639Z,11.60
2022-11-10T23:58:10.391Z,11.60
